createdAt,value
2018-11-26T00:01:30.963Z,20.57
2018-11-26T00:04:01.255Z,20.87
2018-11-26T00:06:32.529Z,20.23
2018-11-26T00:09:02.918Z,18.93
2018-11-26T00:11:35.538Z,20.63
2018-11-26T00:14:06.131Z,21.37
2018-11-26T00:16:36.374Z,20.40
2018-11-26T00:19:07.854Z,21.23
2018-11-26T00:21:38.998Z,19.47
2018-11-26T00:24:10.298Z,17.73
2018-11-26T00:26:41.475Z,16.60
2018-11-26T00:29:12.006Z,16.73
2018-11-26T00:31:42.260Z,16.53
2018-11-26T00:34:12.543Z,17.30
2018-11-26T00:36:43.791Z,17.27
2018-11-26T00:39:14.138Z,15.77
2018-11-26T00:41:44.421Z,18.77
2018-11-26T00:44:14.678Z,16.13
2018-11-26T00:46:44.906Z,18.83
2018-11-26T00:49:15.158Z,16.33
2018-11-26T00:51:45.410Z,15.87
2018-11-26T00:54:15.683Z,17.23
2018-11-26T00:56:46.958Z,15.43
2018-11-26T00:59:17.256Z,16.17
2018-11-26T01:01:47.535Z,16.53
2018-11-26T01:04:17.794Z,17.13
2018-11-26T01:06:48.015Z,20.40
2018-11-26T01:09:18.312Z,20.47
2018-11-26T01:11:49.609Z,19.33
2018-11-26T01:14:20.814Z,17.30
2018-11-26T01:16:52.083Z,18.27
2018-11-26T01:19:22.420Z,18.17
2018-11-26T01:21:52.646Z,19.83
2018-11-26T01:24:23.918Z,17.83
2018-11-26T01:26:54.126Z,17.57
2018-11-26T01:29:24.390Z,18.83
2018-11-26T01:31:54.637Z,17.57
2018-11-26T01:34:24.927Z,19.40
2018-11-26T01:36:55.178Z,19.10
2018-11-26T01:39:25.482Z,19.23
2018-11-26T01:41:55.730Z,20.77
2018-11-26T01:44:26.010Z,24.17
2018-11-26T01:46:56.422Z,21.67
2018-11-26T01:49:27.699Z,24.13
2018-11-26T01:51:58.975Z,21.33
2018-11-26T01:54:30.179Z,22.43
2018-11-26T01:57:00.450Z,22.50
2018-11-26T01:59:30.743Z,22.27
2018-11-26T02:02:02.021Z,21.00
2018-11-26T02:04:32.340Z,20.23
2018-11-26T02:07:02.604Z,19.97
2018-11-26T02:09:33.198Z,20.40
2018-11-26T02:12:03.470Z,19.17
2018-11-26T02:14:34.674Z,20.03
2018-11-26T02:17:05.434Z,21.20
2018-11-26T02:19:36.731Z,21.83
2018-11-26T02:22:07.003Z,19.33
2018-11-26T02:24:37.373Z,21.53
2018-11-26T02:27:07.660Z,20.50
2018-11-26T02:29:38.703Z,21.80
2018-11-26T02:32:09.922Z,20.27
2018-11-26T02:34:42.555Z,20.80
2018-11-26T02:37:12.823Z,20.27
2018-11-26T02:39:43.108Z,18.90
2018-11-26T02:42:14.414Z,20.27
2018-11-26T02:44:44.676Z,19.80
2018-11-26T02:47:14.952Z,21.97
2018-11-26T02:49:45.188Z,22.73
2018-11-26T02:52:16.390Z,23.43
2018-11-26T02:57:08.532Z,23.00
2018-11-26T02:59:39.802Z,23.77
2018-11-26T03:02:10.058Z,21.60
2018-11-26T03:04:41.322Z,22.27
2018-11-26T03:07:12.594Z,20.40
2018-11-26T03:09:42.811Z,16.67
2018-11-26T03:12:13.095Z,17.07
2018-11-26T03:14:43.327Z,15.83
2018-11-26T03:17:14.662Z,18.37
2018-11-26T03:19:54.651Z,16.47
2018-11-26T03:22:24.908Z,18.63
2018-11-26T03:24:55.138Z,17.67
2018-11-26T03:27:26.411Z,18.37
2018-11-26T03:29:56.629Z,18.07
2018-11-26T03:32:27.912Z,18.87
2018-11-26T03:34:59.607Z,17.93
2018-11-26T03:37:30.875Z,18.67
2018-11-26T03:40:02.087Z,20.60
2018-11-26T03:42:32.338Z,17.77
2018-11-26T03:45:02.606Z,17.90
2018-11-26T03:47:33.900Z,17.83
2018-11-26T03:50:04.313Z,18.53
2018-11-26T03:52:34.555Z,17.43
2018-11-26T03:55:06.190Z,18.13
2018-11-26T03:57:36.446Z,18.80
2018-11-26T04:00:10.527Z,21.03
2018-11-26T04:02:40.767Z,22.60
2018-11-26T04:05:11.519Z,21.47
2018-11-26T04:07:42.927Z,21.10
2018-11-26T04:10:14.893Z,30.23
2018-11-26T04:12:46.183Z,24.73
2018-11-26T04:15:16.503Z,17.70
2018-11-26T04:17:47.866Z,18.43
2018-11-26T04:20:19.207Z,17.63
2018-11-26T04:22:49.522Z,17.50
2018-11-26T04:25:19.750Z,16.77
2018-11-26T04:27:50.035Z,17.23
2018-11-26T04:30:20.300Z,16.53
2018-11-26T04:32:52.627Z,17.33
2018-11-26T04:35:23.814Z,19.40
2018-11-26T04:37:55.874Z,17.53
2018-11-26T04:40:27.069Z,16.53
2018-11-26T04:42:58.357Z,16.00
2018-11-26T04:45:28.596Z,17.33
2018-11-26T04:47:58.854Z,14.47
2018-11-26T04:50:30.087Z,16.80
2018-11-26T04:53:02.354Z,16.80
2018-11-26T04:55:33.562Z,15.27
2018-11-26T04:58:03.920Z,14.20
2018-11-26T05:00:35.019Z,15.67
2018-11-26T05:03:05.510Z,17.00
2018-11-26T05:05:36.000Z,16.73
2018-11-26T05:08:06.267Z,15.60
2018-11-26T05:10:36.477Z,15.87
2018-11-26T05:13:07.120Z,16.03
2018-11-26T05:15:37.338Z,17.13
2018-11-26T05:18:07.630Z,16.43
2018-11-26T05:20:37.862Z,17.77
2018-11-26T05:23:08.103Z,16.47
2018-11-26T05:25:38.321Z,16.57
2018-11-26T05:28:08.649Z,16.20
2018-11-26T05:30:38.904Z,16.87
2018-11-26T05:33:09.158Z,17.00
2018-11-26T05:35:40.378Z,18.00
2018-11-26T05:38:10.642Z,16.30
2018-11-26T05:40:40.872Z,14.77
2018-11-26T05:43:11.118Z,14.60
2018-11-26T05:45:41.338Z,14.83
2018-11-26T05:48:11.627Z,14.90
2018-11-26T05:50:41.899Z,16.33
2018-11-26T05:53:12.178Z,14.97
2018-11-26T05:55:42.759Z,17.27
2018-11-26T05:58:13.990Z,15.57
2018-11-26T06:00:45.191Z,16.37
2018-11-26T06:03:15.434Z,16.67
2018-11-26T06:05:45.689Z,18.87
2018-11-26T06:08:16.011Z,19.80
2018-11-26T06:10:47.231Z,19.53
2018-11-26T06:13:17.478Z,18.23
2018-11-26T06:15:47.721Z,23.73
2018-11-26T06:18:19.011Z,43.30
2018-11-26T06:20:51.250Z,38.50
2018-11-26T06:23:21.510Z,44.67
2018-11-26T06:25:51.739Z,45.23
2018-11-26T06:28:22.037Z,33.70
2018-11-26T06:30:52.340Z,35.57
2018-11-26T06:33:22.631Z,48.33
2018-11-26T06:35:59.522Z,55.40
2018-11-26T06:38:29.775Z,49.83
2018-11-26T06:41:00.058Z,52.37
2018-11-26T06:43:30.301Z,56.60
2018-11-26T06:46:02.276Z,31.53
2018-11-26T06:48:32.527Z,23.03
2018-11-26T06:51:02.759Z,35.50
2018-11-26T06:53:34.258Z,31.87
2018-11-26T06:56:05.893Z,40.23
2018-11-26T06:58:37.154Z,52.70
2018-11-26T07:01:07.456Z,53.97
2018-11-26T07:03:38.719Z,45.93
2018-11-26T07:06:09.046Z,31.30
2018-11-26T07:08:39.316Z,42.07
2018-11-26T07:11:09.542Z,34.33
2018-11-26T07:13:39.790Z,34.43
2018-11-26T07:16:10.030Z,58.13
2018-11-26T07:18:40.304Z,34.70
2018-11-26T07:21:10.807Z,32.60
2018-11-26T07:23:41.062Z,31.23
2018-11-26T07:26:11.306Z,38.53
2018-11-26T07:28:41.638Z,42.63
2018-11-26T07:31:11.883Z,39.77
2018-11-26T07:33:42.208Z,64.07
2018-11-26T07:36:12.434Z,44.63
2018-11-26T07:38:42.754Z,50.80
2018-11-26T07:41:14.347Z,35.20
2018-11-26T07:43:44.570Z,35.03
2018-11-26T07:46:17.165Z,35.60
2018-11-26T07:48:48.338Z,26.37
2018-11-26T07:51:18.623Z,23.83
2018-11-26T07:53:49.790Z,37.67
2018-11-26T07:56:20.374Z,31.00
2018-11-26T07:58:51.631Z,30.47
2018-11-26T08:01:23.850Z,33.23
2018-11-26T08:03:54.075Z,28.90
2018-11-26T08:06:24.342Z,24.87
2018-11-26T08:08:54.980Z,25.77
2018-11-26T08:11:25.190Z,30.43
2018-11-26T08:13:55.446Z,29.00
2018-11-26T08:16:25.698Z,28.13
2018-11-26T08:18:57.266Z,25.67
2018-11-26T08:21:28.439Z,30.23
2018-11-26T08:23:58.756Z,23.37
2018-11-26T08:26:29.011Z,21.30
2018-11-26T08:29:00.265Z,18.70
2018-11-26T08:31:30.512Z,15.10
2018-11-26T08:34:00.784Z,14.63
2018-11-26T08:36:34.067Z,16.87
2018-11-26T08:39:09.478Z,13.20
2018-11-26T08:41:44.467Z,16.23
2018-11-26T08:44:18.886Z,19.33
2018-11-26T08:46:53.265Z,20.17
2018-11-26T08:49:26.786Z,19.00
2018-11-26T08:51:57.946Z,16.17
2018-11-26T08:54:28.224Z,21.00
2018-11-26T08:56:59.460Z,26.83
2018-11-26T08:59:29.726Z,29.00
2018-11-26T09:02:01.026Z,13.97
2018-11-26T09:04:32.227Z,18.53
2018-11-26T09:07:02.448Z,24.10
2018-11-26T09:09:32.902Z,19.53
2018-11-26T09:12:02.957Z,20.70
2018-11-26T09:14:33.349Z,21.33
2018-11-26T09:17:03.576Z,30.33
2018-11-26T09:19:34.970Z,33.87
2018-11-26T09:22:05.566Z,21.63
2018-11-26T09:24:35.939Z,16.13
2018-11-26T09:27:09.972Z,12.83
2018-11-26T09:29:37.496Z,16.33
2018-11-26T09:32:07.778Z,14.57
2018-11-26T09:34:38.022Z,16.47
2018-11-26T09:37:08.259Z,25.80
2018-11-26T09:39:39.506Z,28.17
2018-11-26T09:42:10.755Z,28.70
2018-11-26T09:44:41.291Z,15.83
2018-11-26T09:47:11.549Z,13.60
2018-11-26T09:49:41.801Z,20.67
2018-11-26T09:52:13.118Z,27.00
2018-11-26T09:54:43.436Z,18.40
2018-11-26T09:57:13.730Z,28.67
2018-11-26T09:59:43.990Z,25.03
2018-11-26T10:02:14.238Z,18.90
2018-11-26T10:04:44.490Z,12.37
2018-11-26T10:07:14.711Z,11.57
2018-11-26T10:09:44.959Z,10.53
2018-11-26T10:12:15.169Z,10.40
2018-11-26T10:14:46.406Z,10.30
2018-11-26T10:17:17.758Z,9.33
2018-11-26T10:19:49.580Z,8.67
2018-11-26T10:22:19.791Z,9.50
2018-11-26T10:24:50.274Z,7.67
2018-11-26T10:27:21.338Z,8.50
2018-11-26T10:29:51.630Z,8.13
2018-11-26T10:32:22.882Z,9.23
2018-11-26T10:34:55.097Z,14.77
2018-11-26T10:37:25.363Z,8.77
2018-11-26T10:39:55.606Z,7.90
2018-11-26T10:42:25.850Z,9.70
2018-11-26T10:44:56.098Z,17.60
2018-11-26T10:47:26.308Z,16.63
2018-11-26T10:49:56.614Z,14.10
2018-11-26T10:52:26.819Z,16.43
2018-11-26T10:54:57.102Z,18.83
2018-11-26T10:57:27.898Z,7.57
2018-11-26T10:59:59.687Z,11.77
2018-11-26T11:02:34.560Z,13.87
2018-11-26T11:05:05.799Z,21.83
2018-11-26T11:07:36.047Z,15.57
2018-11-26T11:10:09.557Z,9.40
2018-11-26T11:12:40.808Z,24.60
2018-11-26T11:15:12.354Z,21.23
2018-11-26T11:17:43.633Z,13.77
2018-11-26T11:20:30.050Z,5.43
2018-11-26T11:23:00.316Z,7.83
2018-11-26T11:25:30.539Z,7.77
2018-11-26T11:28:00.826Z,7.73
2018-11-26T11:30:31.455Z,6.97
2018-11-26T11:35:30.991Z,19.23
2018-11-26T11:38:02.351Z,21.37
2018-11-26T11:40:33.631Z,19.57
2018-11-26T11:43:03.892Z,23.30
2018-11-26T11:45:34.605Z,8.07
2018-11-26T11:48:05.521Z,9.20
2018-11-26T11:50:35.836Z,20.93
2018-11-26T11:53:06.995Z,25.77
2018-11-26T11:55:37.254Z,46.87
2018-11-26T11:58:07.535Z,22.30
2018-11-26T12:00:39.932Z,25.07
2018-11-26T12:03:13.299Z,24.50
2018-11-26T12:05:43.566Z,11.80
2018-11-26T12:08:13.868Z,6.47
2018-11-26T12:10:44.138Z,7.93
2018-11-26T12:13:15.209Z,13.37
2018-11-26T12:15:51.924Z,6.57
2018-11-26T12:18:22.179Z,5.00
2018-11-26T12:20:52.443Z,5.27
2018-11-26T12:23:22.692Z,10.00
2018-11-26T12:25:52.939Z,9.20
2018-11-26T12:28:23.143Z,14.17
2018-11-26T12:30:53.948Z,17.20
2018-11-26T12:33:24.191Z,29.10
2018-11-26T12:35:54.470Z,21.97
2018-11-26T12:38:24.747Z,22.70
2018-11-26T12:40:56.004Z,28.13
2018-11-26T12:43:27.191Z,33.58
2018-11-26T12:45:57.455Z,40.85
2018-11-26T12:48:27.889Z,7.20
2018-11-26T12:50:58.159Z,8.48
2018-11-26T12:53:28.480Z,8.60
2018-11-26T12:55:59.752Z,16.35
2018-11-26T12:58:29.944Z,11.45
2018-11-26T13:01:18.047Z,13.23
2018-11-26T13:04:00.685Z,19.23
2018-11-26T13:06:52.027Z,31.75
2018-11-26T13:09:23.268Z,31.97
2018-11-26T13:11:53.565Z,14.47
2018-11-26T13:14:23.809Z,10.43
2018-11-26T13:16:54.152Z,9.93
2018-11-26T13:19:26.199Z,23.57
2018-11-26T13:21:56.547Z,21.20
2018-11-26T13:24:26.812Z,36.67
2018-11-26T13:26:57.143Z,29.27
2018-11-26T13:29:27.440Z,17.77
2018-11-26T13:31:57.728Z,22.27
2018-11-26T13:34:28.043Z,17.45
2018-11-26T13:36:58.307Z,19.27
2018-11-26T13:39:29.576Z,21.10
2018-11-26T13:42:01.840Z,19.97
2018-11-26T13:44:33.087Z,23.90
2018-11-26T13:47:03.444Z,16.60
2018-11-26T13:49:33.661Z,12.17
2018-11-26T13:52:04.191Z,14.37
2018-11-26T13:54:34.463Z,17.10
2018-11-26T13:57:05.450Z,32.43
2018-11-26T13:59:35.703Z,38.40
2018-11-26T14:02:07.072Z,32.00
2018-11-26T14:04:37.316Z,26.50
2018-11-26T14:07:07.572Z,21.03
2018-11-26T14:09:37.787Z,13.33
2018-11-26T14:12:08.104Z,12.07
2018-11-26T14:14:38.436Z,12.73
2018-11-26T14:17:08.722Z,14.37
2018-11-26T14:19:39.071Z,12.47
2018-11-26T14:22:09.332Z,12.80
2018-11-26T14:24:39.600Z,11.33
2018-11-26T14:27:10.952Z,13.07
2018-11-26T14:29:42.792Z,12.13
2018-11-26T14:32:14.141Z,12.07
2018-11-26T14:34:45.404Z,14.20
2018-11-26T14:37:15.692Z,12.50
2018-11-26T14:39:47.072Z,10.73
2018-11-26T14:42:17.348Z,9.77
2018-11-26T14:44:47.567Z,9.73
2018-11-26T14:47:17.820Z,8.57
2018-11-26T14:49:48.042Z,6.77
2018-11-26T14:52:18.407Z,7.50
2018-11-26T14:54:50.535Z,7.77
2018-11-26T14:57:20.813Z,7.67
2018-11-26T14:59:51.063Z,6.80
2018-11-26T15:02:21.492Z,6.13
2018-11-26T15:04:51.825Z,5.27
2018-11-26T15:07:22.083Z,5.83
2018-11-26T15:09:52.390Z,5.43
2018-11-26T15:12:22.660Z,7.03
2018-11-26T15:14:53.966Z,10.30
2018-11-26T15:17:25.257Z,6.33
2018-11-26T15:19:56.444Z,6.40
2018-11-26T15:22:27.787Z,5.33
2018-11-26T15:24:59.792Z,5.67
2018-11-26T15:27:30.440Z,5.23
2018-11-26T15:30:00.750Z,5.70
2018-11-26T15:32:32.006Z,5.17
2018-11-26T15:35:02.294Z,4.90
2018-11-26T15:37:32.572Z,5.93
2018-11-26T15:40:02.825Z,6.50
2018-11-26T15:42:33.098Z,8.90
2018-11-26T15:45:03.465Z,7.40
2018-11-26T15:47:34.346Z,7.13
2018-11-26T15:50:05.772Z,7.20
2018-11-26T15:52:36.160Z,6.00
2018-11-26T15:55:12.968Z,5.30
2018-11-26T15:57:44.259Z,5.17
2018-11-26T16:00:19.239Z,4.83
2018-11-26T16:02:49.672Z,5.40
2018-11-26T16:05:25.931Z,5.20
2018-11-26T16:08:08.225Z,5.57
2018-11-26T16:10:38.511Z,5.53
2018-11-26T16:13:09.933Z,4.90
2018-11-26T16:15:42.300Z,5.90
2018-11-26T16:18:16.336Z,5.00
2018-11-26T16:20:46.634Z,16.47
2018-11-26T16:23:16.940Z,11.20
2018-11-26T16:25:48.123Z,8.93
2018-11-26T16:28:22.847Z,6.60
2018-11-26T16:30:53.132Z,14.13
2018-11-26T16:33:24.603Z,12.03
2018-11-26T16:35:54.869Z,8.83
2018-11-26T16:38:25.340Z,8.00
2018-11-26T16:40:55.553Z,8.13
2018-11-26T16:43:25.825Z,6.97
2018-11-26T16:45:56.317Z,5.60
2018-11-26T16:48:26.639Z,6.03
2018-11-26T16:50:58.659Z,5.23
2018-11-26T16:53:28.983Z,6.83
2018-11-26T16:55:59.244Z,5.30
2018-11-26T16:58:30.561Z,12.47
2018-11-26T17:01:02.845Z,26.37
2018-11-26T17:03:33.132Z,16.97
2018-11-26T17:06:04.441Z,12.83
2018-11-26T17:08:34.739Z,7.93
2018-11-26T17:11:05.506Z,6.43
2018-11-26T17:13:35.826Z,4.77
2018-11-26T17:16:06.164Z,4.37
2018-11-26T17:18:36.467Z,4.07
2018-11-26T17:21:07.195Z,3.93
2018-11-26T17:23:37.535Z,31.60
2018-11-26T17:26:07.836Z,18.23
2018-11-26T17:28:39.211Z,23.10
2018-11-26T17:31:09.477Z,7.97
2018-11-26T17:33:39.799Z,5.20
2018-11-26T17:36:10.052Z,28.13
2018-11-26T17:38:40.304Z,9.90
2018-11-26T17:41:11.617Z,5.17
2018-11-26T17:43:43.001Z,5.33
2018-11-26T17:46:13.429Z,19.83
2018-11-26T17:48:43.902Z,13.20
2018-11-26T17:51:14.184Z,9.17
2018-11-26T17:53:44.449Z,11.30
2018-11-26T17:56:14.700Z,77.23
2018-11-26T17:58:45.023Z,92.53
2018-11-26T18:01:18.719Z,82.43
2018-11-26T18:03:49.014Z,86.73
2018-11-26T18:06:19.327Z,74.57
2018-11-26T18:08:49.611Z,82.70
2018-11-26T18:11:19.848Z,128.20
2018-11-26T18:13:52.172Z,146.80
2018-11-26T18:16:23.468Z,115.63
2018-11-26T18:18:53.759Z,116.13
2018-11-26T18:21:24.100Z,149.93
2018-11-26T18:23:54.846Z,137.33
2018-11-26T18:26:25.316Z,148.93
2018-11-26T18:28:55.779Z,146.30
2018-11-26T18:31:26.142Z,119.97
2018-11-26T18:33:56.457Z,102.50
2018-11-26T18:36:26.766Z,109.67
2018-11-26T18:38:57.073Z,94.93
2018-11-26T18:41:27.712Z,70.20
2018-11-26T18:43:58.082Z,47.10
2018-11-26T18:46:28.330Z,27.27
2018-11-26T18:48:58.658Z,18.17
2018-11-26T18:51:28.932Z,14.00
2018-11-26T18:53:59.199Z,21.67
2018-11-26T18:56:29.450Z,31.17
2018-11-26T18:58:59.770Z,80.70
2018-11-26T19:01:30.152Z,49.17
2018-11-26T19:04:00.440Z,57.37
2018-11-26T19:06:31.737Z,42.87
2018-11-26T19:09:02.044Z,56.13
2018-11-26T19:11:32.316Z,230.73
2018-11-26T19:14:07.363Z,115.13
2018-11-26T19:16:41.197Z,70.30
2018-11-26T19:19:13.470Z,71.90
2018-11-26T19:21:43.718Z,57.73
2018-11-26T19:24:14.041Z,43.73
2018-11-26T19:26:45.313Z,24.77
2018-11-26T19:29:16.648Z,30.40
2018-11-26T19:31:46.880Z,31.43
2018-11-26T19:34:17.202Z,36.43
2018-11-26T19:36:47.498Z,49.27
2018-11-26T19:39:18.162Z,50.17
2018-11-26T19:41:48.436Z,47.43
2018-11-26T19:44:26.811Z,42.27
2018-11-26T19:46:57.288Z,42.70
2018-11-26T19:49:27.654Z,74.50
2018-11-26T19:51:59.008Z,78.27
2018-11-26T19:54:30.344Z,351.73
2018-11-26T19:57:01.553Z,152.23
2018-11-26T19:59:31.868Z,70.53
2018-11-26T20:02:03.148Z,40.93
2018-11-26T20:04:59.796Z,65.33
2018-11-26T20:07:30.224Z,79.63
2018-11-26T20:10:00.503Z,124.20
2018-11-26T20:12:31.001Z,74.77
2018-11-26T20:15:01.309Z,33.23
2018-11-26T20:17:31.588Z,38.40
2018-11-26T20:20:01.908Z,43.63
2018-11-26T20:22:32.190Z,37.53
2018-11-26T20:25:03.515Z,20.87
2018-11-26T20:27:34.719Z,22.93
2018-11-26T20:30:06.065Z,33.83
2018-11-26T20:32:36.519Z,20.03
2018-11-26T20:35:08.760Z,34.57
2018-11-26T20:37:39.400Z,35.87
2018-11-26T20:40:12.220Z,30.53
2018-11-26T20:42:45.726Z,23.97
2018-11-26T20:45:16.628Z,32.57
2018-11-26T20:47:48.792Z,31.90
2018-11-26T20:50:22.469Z,36.97
2018-11-26T20:52:52.928Z,33.43
2018-11-26T20:55:25.297Z,31.90
2018-11-26T20:57:56.593Z,49.77
2018-11-26T21:00:28.771Z,28.73
2018-11-26T21:03:05.315Z,29.10
2018-11-26T21:05:35.601Z,28.47
2018-11-26T21:08:06.185Z,32.83
2018-11-26T21:10:36.668Z,27.40
2018-11-26T21:13:07.064Z,27.63
2018-11-26T21:15:37.336Z,23.30
2018-11-26T21:18:09.225Z,23.40
2018-11-26T21:20:47.379Z,20.13
2018-11-26T21:23:21.103Z,23.13
2018-11-26T21:25:52.460Z,23.07
2018-11-26T21:28:23.780Z,27.10
2018-11-26T21:30:55.064Z,32.83
2018-11-26T21:33:26.376Z,22.27
2018-11-26T21:35:56.663Z,21.97
2018-11-26T21:38:26.936Z,21.67
2018-11-26T21:40:57.204Z,21.83
2018-11-26T21:43:27.441Z,19.13
2018-11-26T21:46:01.265Z,18.80
2018-11-26T21:48:31.536Z,20.50
2018-11-26T21:51:01.810Z,20.17
2018-11-26T21:53:32.040Z,23.10
2018-11-26T21:56:03.505Z,21.90
2018-11-26T21:58:34.711Z,20.03
2018-11-26T22:01:07.692Z,20.17
2018-11-26T22:03:39.910Z,17.03
2018-11-26T22:06:10.203Z,14.90
2018-11-26T22:08:40.451Z,17.50
2018-11-26T22:11:11.701Z,17.27
2018-11-26T22:13:42.919Z,16.77
2018-11-26T22:16:13.220Z,15.93
2018-11-26T22:18:45.053Z,16.63
2018-11-26T22:21:16.316Z,16.20
2018-11-26T22:23:47.533Z,16.33
2018-11-26T22:26:18.828Z,17.87
2018-11-26T22:28:50.052Z,13.77
2018-11-26T22:31:22.256Z,12.77
2018-11-26T22:33:52.583Z,14.53
2018-11-26T22:36:23.819Z,19.90
2018-11-26T22:38:54.031Z,16.60
2018-11-26T22:41:25.312Z,18.63
2018-11-26T22:43:56.254Z,13.63
2018-11-26T22:46:30.381Z,14.67
2018-11-26T22:49:01.036Z,13.40
2018-11-26T22:51:31.329Z,17.03
2018-11-26T22:54:01.577Z,17.20
2018-11-26T22:56:31.835Z,13.83
2018-11-26T22:59:02.074Z,16.93
2018-11-26T23:01:33.352Z,16.10
2018-11-26T23:04:05.149Z,18.87
2018-11-26T23:06:35.440Z,19.33
2018-11-26T23:09:08.343Z,18.10
2018-11-26T23:11:38.638Z,16.80
2018-11-26T23:14:08.907Z,13.47
2018-11-26T23:16:39.181Z,18.43
2018-11-26T23:19:09.408Z,19.13
2018-11-26T23:21:39.664Z,18.97
2018-11-26T23:24:10.979Z,15.48
2018-11-26T23:26:41.256Z,12.23
2018-11-26T23:29:11.509Z,13.43
2018-11-26T23:31:42.807Z,12.90
2018-11-26T23:34:13.043Z,13.97
2018-11-26T23:36:43.390Z,15.07
2018-11-26T23:39:13.640Z,19.07
2018-11-26T23:41:43.900Z,15.60
2018-11-26T23:44:14.173Z,13.67
2018-11-26T23:46:44.445Z,12.93
2018-11-26T23:49:14.671Z,13.83
2018-11-26T23:51:44.937Z,12.60
2018-11-26T23:54:15.168Z,12.10
2018-11-26T23:56:45.471Z,11.70
2018-11-26T23:59:15.715Z,12.37
